Time;durP1;ratioP1;P1;durP2;ratioP2;P2;SDS_P1;SDS_P2;PMS_P1;PMS_P2;Temp;Humidity;BMP_temperature;BMP_pressure;BME280_temperature;BME280_humidity;BME280_pressure;Samples;Min_cycle;Max_cycle;Signal;HPM_P1;HPM_P2
2021/12/08 00:01:27;;;;;;;;;;;3.30;99.90;;;;;;5015151;28;20387;-88
2021/12/08 00:03:58;;;;;;;;;;;3.20;99.90;;;;;;4999255;28;19926;-87
2021/12/08 00:06:24;;;;;;;;;;;3.30;99.90;;;;;;5015037;28;19930;-87
2021/12/08 00:14:25;;;;;;;;;;;3.30;99.90;;;;;;5001099;28;20373;-87
2021/12/08 00:16:53;;;;;;;;;;;3.20;99.90;;;;;;5015263;28;19932;-87
2021/12/08 00:19:19;;;;;;;;;;;3.30;99.90;;;;;;5015098;28;20271;-87
2021/12/08 00:21:45;;;;;;;;;;;3.30;99.90;;;;;;5014913;28;19933;-87
2021/12/08 00:24:10;;;;;;;;;;;3.30;99.90;;;;;;5014735;28;19925;-87
2021/12/08 00:26:36;;;;;;;;;;;3.30;99.90;;;;;;4998183;28;19932;-87
2021/12/08 00:29:02;;;;;;;;;;;3.30;99.90;;;;;;4998699;28;19925;-87
2021/12/08 00:31:30;;;;;;;;;;;3.30;99.90;;;;;;4997782;28;20050;-88
2021/12/08 00:34:01;;;;;;;;;;;3.30;99.90;;;;;;4998560;28;20314;-87
2021/12/08 00:36:39;;;;;;;;;;;3.30;99.90;;;;;;4998066;28;20366;-87
2021/12/08 00:39:22;;;;;;;;;;;3.20;99.90;;;;;;4998414;28;19972;-87
2021/12/08 00:41:48;;;;;;;;;;;3.30;99.90;;;;;;4998694;28;19980;-87
2021/12/08 00:44:17;;;;;;;;;;;3.30;99.90;;;;;;4998617;28;19926;-86
2021/12/08 00:46:45;;;;;;;;;;;3.30;99.90;;;;;;5014932;28;19930;-87
2021/12/08 00:49:13;;;;;;;;;;;3.30;99.90;;;;;;5014978;28;20016;-87
2021/12/08 00:51:41;;;;;;;;;;;3.30;99.90;;;;;;5006608;28;19936;-87
2021/12/08 00:54:07;;;;;;;;;;;3.40;99.90;;;;;;4989267;28;19931;-87
2021/12/08 00:56:36;;;;;;;;;;;3.40;99.90;;;;;;4981717;28;19933;-86
2021/12/08 00:59:09;;;;;;;;;;;3.30;99.90;;;;;;4998263;28;19973;-87
2021/12/08 01:01:42;;;;;;;;;;;3.40;99.90;;;;;;4983214;28;19925;-87
2021/12/08 01:04:09;;;;;;;;;;;3.30;99.90;;;;;;4982430;28;19975;-87
2021/12/08 01:06:34;;;;;;;;;;;3.40;99.90;;;;;;4981493;28;19926;-87
2021/12/08 01:09:00;;;;;;;;;;;3.40;99.90;;;;;;4984179;28;19930;-87
2021/12/08 01:11:28;;;;;;;;;;;3.40;99.90;;;;;;4981124;28;19926;-87
2021/12/08 01:13:54;;;;;;;;;;;3.40;99.90;;;;;;4997667;28;20397;-87
2021/12/08 01:16:20;;;;;;;;;;;3.40;99.90;;;;;;4997867;28;19926;-87
2021/12/08 01:18:55;;;;;;;;;;;3.40;99.90;;;;;;4997322;28;20417;-87
2021/12/08 01:21:23;;;;;;;;;;;3.40;99.90;;;;;;4998153;28;20394;-88
2021/12/08 01:23:56;;;;;;;;;;;3.40;99.90;;;;;;5013692;28;19933;-87
2021/12/08 01:26:27;;;;;;;;;;;3.40;99.90;;;;;;4997741;28;20284;-87
2021/12/08 01:28:57;;;;;;;;;;;3.50;99.90;;;;;;5014226;28;20016;-87
2021/12/08 01:31:24;;;;;;;;;;;3.40;99.90;;;;;;4997175;28;20405;-87
2021/12/08 01:33:52;;;;;;;;;;;3.40;99.90;;;;;;4997791;28;19949;-87
2021/12/08 01:36:20;;;;;;;;;;;3.50;99.90;;;;;;4997413;28;19927;-87
2021/12/08 01:38:46;;;;;;;;;;;3.50;99.90;;;;;;4996899;28;19926;-87
2021/12/08 01:41:16;;;;;;;;;;;3.50;99.90;;;;;;4992734;28;19932;-87
2021/12/08 01:45:57;;;;;;;;;;;3.50;99.90;;;;;;4993999;28;19988;-87
2021/12/08 01:46:30;;;;;;;;;;;3.60;99.90;;;;;;4993302;28;19926;-88
2021/12/08 01:49:01;;;;;;;;;;;3.60;99.90;;;;;;4993811;28;19933;-87
2021/12/08 01:51:29;;;;;;;;;;;3.50;99.90;;;;;;4993611;28;19980;-87
2021/12/08 01:54:04;;;;;;;;;;;3.60;99.90;;;;;;4982774;28;19925;-87
2021/12/08 01:56:33;;;;;;;;;;;3.60;99.90;;;;;;4981661;28;20329;-88
2021/12/08 01:59:05;;;;;;;;;;;3.60;99.90;;;;;;4997129;28;19926;-87
2021/12/08 02:01:39;;;;;;;;;;;3.70;99.90;;;;;;5012884;28;20267;-87
2021/12/08 02:04:06;;;;;;;;;;;3.60;99.90;;;;;;4981870;28;19971;-87
2021/12/08 02:06:36;;;;;;;;;;;3.70;99.90;;;;;;4996967;28;20282;-86
2021/12/08 02:09:10;;;;;;;;;;;3.70;99.90;;;;;;4980850;28;19926;-87
2021/12/08 02:11:36;;;;;;;;;;;3.70;99.90;;;;;;5012465;28;20301;-87
2021/12/08 02:14:01;;;;;;;;;;;3.70;99.90;;;;;;5012750;28;19936;-87
2021/12/08 02:16:28;;;;;;;;;;;3.70;99.90;;;;;;4980590;28;20329;-87
2021/12/08 02:18:56;;;;;;;;;;;3.80;99.90;;;;;;4980314;28;19929;-88
2021/12/08 02:21:31;;;;;;;;;;;3.80;99.90;;;;;;4981180;28;20382;-87
2021/12/08 02:23:59;;;;;;;;;;;3.80;99.90;;;;;;4996627;28;20281;-87
2021/12/08 02:26:27;;;;;;;;;;;3.80;99.90;;;;;;4980312;28;19925;-87
2021/12/08 02:28:59;;;;;;;;;;;3.80;99.90;;;;;;4996068;28;19930;-87
2021/12/08 02:31:38;;;;;;;;;;;3.80;99.90;;;;;;4980760;28;20263;-87
2021/12/08 02:50:24;;;;;;;;;;;3.90;99.90;;;;;;4996581;28;19925;-87
2021/12/08 02:52:52;;;;;;;;;;;3.80;99.90;;;;;;4996940;28;19932;-87
2021/12/08 02:55:25;;;;;;;;;;;3.90;99.90;;;;;;4979994;28;19926;-87
2021/12/08 02:57:51;;;;;;;;;;;3.90;99.90;;;;;;5012214;28;19925;-87
2021/12/08 03:00:24;;;;;;;;;;;3.80;99.90;;;;;;4996249;28;20092;-87
2021/12/08 03:02:50;;;;;;;;;;;3.90;99.90;;;;;;5012623;28;19925;-87
2021/12/08 03:05:26;;;;;;;;;;;3.90;99.90;;;;;;5011882;28;19926;-87
2021/12/08 03:07:59;;;;;;;;;;;3.90;99.90;;;;;;4980059;28;19971;-87
2021/12/08 03:10:31;;;;;;;;;;;4.00;99.90;;;;;;5012491;28;19948;-87
2021/12/08 03:12:57;;;;;;;;;;;3.90;99.90;;;;;;4995556;28;19925;-88
2021/12/08 03:15:25;;;;;;;;;;;4.00;99.90;;;;;;4995036;28;19929;-87
2021/12/08 03:17:55;;;;;;;;;;;4.00;99.90;;;;;;4995656;28;19926;-87
2021/12/08 03:20:27;;;;;;;;;;;4.00;99.90;;;;;;5009321;28;19929;-87
2021/12/08 03:22:59;;;;;;;;;;;4.00;99.90;;;;;;5009445;28;20021;-87
2021/12/08 03:25:27;;;;;;;;;;;4.10;99.90;;;;;;4995962;28;19933;-87
2021/12/08 03:28:05;;;;;;;;;;;4.00;99.90;;;;;;4992042;28;19934;-87
2021/12/08 03:30:38;;;;;;;;;;;4.10;99.90;;;;;;4992571;28;20274;-87
2021/12/08 03:33:14;;;;;;;;;;;4.10;99.90;;;;;;4992318;28;19980;-87
2021/12/08 03:35:44;;;;;;;;;;;4.00;99.90;;;;;;4992388;28;19926;-87
2021/12/08 03:38:12;;;;;;;;;;;4.10;99.90;;;;;;4992298;28;20021;-87
2021/12/08 03:40:40;;;;;;;;;;;4.10;99.90;;;;;;5010327;28;19926;-87
2021/12/08 03:43:14;;;;;;;;;;;4.10;99.90;;;;;;5011290;28;19925;-87
2021/12/08 03:45:45;;;;;;;;;;;4.20;99.90;;;;;;5011934;28;20374;-87
2021/12/08 03:48:16;;;;;;;;;;;4.10;99.90;;;;;;4995722;28;19972;-88
2021/12/08 03:50:44;;;;;;;;;;;4.20;99.90;;;;;;5004869;28;19925;-88
2021/12/08 03:53:16;;;;;;;;;;;4.20;99.90;;;;;;4975860;28;19965;-87
2021/12/08 03:55:47;;;;;;;;;;;4.20;99.90;;;;;;4976714;28;19979;-87
2021/12/08 03:58:15;;;;;;;;;;;4.30;99.90;;;;;;4989359;28;19929;-87
2021/12/08 04:00:55;;;;;;;;;;;4.20;99.90;;;;;;4981813;28;19926;-87
2021/12/08 04:03:20;;;;;;;;;;;4.20;99.90;;;;;;4979789;28;19926;-87
2021/12/08 04:05:57;;;;;;;;;;;4.30;99.90;;;;;;4979519;28;20289;-87
2021/12/08 04:11:11;;;;;;;;;;;4.30;99.90;;;;;;4997372;28;20341;-87
2021/12/08 04:13:39;;;;;;;;;;;4.30;99.90;;;;;;4979250;28;19925;-87
2021/12/08 04:16:08;;;;;;;;;;;4.30;99.90;;;;;;4991802;28;20398;-87
2021/12/08 04:18:36;;;;;;;;;;;4.40;99.90;;;;;;4992144;28;19930;-87
2021/12/08 04:21:02;;;;;;;;;;;4.30;99.90;;;;;;4991508;28;19932;-87
2021/12/08 04:23:35;;;;;;;;;;;4.40;99.90;;;;;;4992218;28;19926;-87
2021/12/08 04:26:01;;;;;;;;;;;4.40;99.90;;;;;;5008212;28;19929;-87
2021/12/08 04:28:27;;;;;;;;;;;4.40;99.90;;;;;;4995350;28;19976;-88
2021/12/08 04:31:17;;;;;;;;;;;4.50;99.90;;;;;;4998112;28;19977;-87
2021/12/08 04:33:45;;;;;;;;;;;4.40;99.90;;;;;;4998323;28;20024;-87
2021/12/08 04:36:13;;;;;;;;;;;4.40;99.90;;;;;;5014819;28;19976;-87
2021/12/08 04:38:45;;;;;;;;;;;4.60;99.90;;;;;;5014829;28;20321;-87
2021/12/08 04:41:22;;;;;;;;;;;4.50;99.90;;;;;;5014833;28;20344;-87
2021/12/08 04:44:01;;;;;;;;;;;4.50;99.90;;;;;;4998356;28;20362;-87
2021/12/08 04:52:18;;;;;;;;;;;4.70;99.90;;;;;;5001645;28;19925;-87
2021/12/08 05:03:51;;;;;;;;;;;4.70;99.90;;;;;;5003171;28;19933;-87
2021/12/08 05:06:36;;;;;;;;;;;4.70;99.90;;;;;;4996599;28;19933;-87
2021/12/08 05:09:14;;;;;;;;;;;4.70;99.90;;;;;;4978442;28;19973;-88
2021/12/08 05:12:01;;;;;;;;;;;4.70;99.90;;;;;;4978332;28;19933;-87
2021/12/08 05:14:28;;;;;;;;;;;4.70;99.90;;;;;;4983609;28;19975;-87
2021/12/08 05:17:17;;;;;;;;;;;4.80;99.90;;;;;;4981582;28;19937;-87
2021/12/08 05:19:55;;;;;;;;;;;4.80;99.90;;;;;;5024876;28;19925;-87
2021/12/08 05:22:27;;;;;;;;;;;4.90;99.90;;;;;;5015379;28;19929;-87
2021/12/08 05:25:02;;;;;;;;;;;4.90;99.90;;;;;;5013872;28;20396;-87
2021/12/08 05:27:34;;;;;;;;;;;4.90;99.90;;;;;;4997915;28;19929;-87
2021/12/08 05:30:06;;;;;;;;;;;4.90;99.90;;;;;;4997618;28;20026;-87
2021/12/08 05:32:48;;;;;;;;;;;;;;;;;;;;;
2021/12/08 05:35:17;;;;;;;;;;;5.00;99.90;;;;;;5013617;28;19926;-87
2021/12/08 05:37:48;;;;;;;;;;;5.00;99.90;;;;;;4997309;28;19975;-87
2021/12/08 05:40:16;;;;;;;;;;;5.10;99.90;;;;;;4984007;28;20015;-87
2021/12/08 05:42:44;;;;;;;;;;;5.10;99.90;;;;;;4978038;28;20063;-87
2021/12/08 05:45:13;;;;;;;;;;;5.10;99.90;;;;;;4977490;28;19926;-87
2021/12/08 05:48:09;;;;;;;;;;;5.10;99.90;;;;;;4995244;28;20329;-88
2021/12/08 05:50:40;;;;;;;;;;;5.20;99.90;;;;;;4994252;28;19925;-87
2021/12/08 05:53:06;;;;;;;;;;;5.20;99.90;;;;;;4977567;28;19977;-87
2021/12/08 05:55:44;;;;;;;;;;;5.20;99.90;;;;;;5011458;28;20393;-87
2021/12/08 06:01:04;;;;;;;;;;;5.10;99.90;;;;;;5000334;28;19983;-87
2021/12/08 06:03:35;;;;;;;;;;;5.10;99.90;;;;;;4996578;28;19926;-87
2021/12/08 06:06:03;;;;;;;;;;;5.10;99.90;;;;;;4981374;28;20313;-87
2021/12/08 06:08:34;;;;;;;;;;;5.10;99.90;;;;;;4980860;28;19968;-87
2021/12/08 06:11:18;;;;;;;;;;;5.10;99.90;;;;;;4980498;28;19925;-87
2021/12/08 06:25:23;;;;;;;;;;;;;;;;;;;;;
2021/12/08 06:28:11;;;;;;;;;;;;;;;;;;;;;
2021/12/08 06:30:47;;;;;;;;;;;;;;;;;;;;;
2021/12/08 06:33:57;;;;;;;;;;;4.80;99.90;;;;;;5037523;28;19983;-88
2021/12/08 06:39:29;;;;;;;;;;;;;;;;;;;;;
2021/12/08 06:42:04;;;;;;;;;;;4.70;99.90;;;;;;5017669;28;20337;-89
2021/12/08 06:44:43;;;;;;;;;;;4.70;99.90;;;;;;5000421;28;19979;-89
2021/12/08 06:47:11;;;;;;;;;;;4.60;99.90;;;;;;4999217;28;20017;-89
2021/12/08 06:49:40;;;;;;;;;;;4.60;99.90;;;;;;4998689;28;19928;-90
2021/12/08 06:52:16;;;;;;;;;;;4.50;99.90;;;;;;5015431;28;19925;-89
2021/12/08 06:54:50;;;;;;;;;;;4.60;99.90;;;;;;5016823;28;20285;-89
2021/12/08 06:57:23;;;;;;;;;;;4.50;99.90;;;;;;4999119;28;19929;-90
2021/12/08 07:05:41;;;;;;;;;;;;;;;;;;;;;
2021/12/08 07:08:20;;;;;;;;;;;4.50;99.90;;;;;;5017625;28;19968;-90
2021/12/08 07:10:49;;;;;;;;;;;4.40;99.90;;;;;;5016559;28;19983;-89
2021/12/08 07:13:25;;;;;;;;;;;4.40;99.90;;;;;;5015983;28;20401;-89
2021/12/08 07:15:55;;;;;;;;;;;4.40;99.90;;;;;;5016119;28;19926;-89
2021/12/08 07:18:25;;;;;;;;;;;4.50;99.90;;;;;;5015711;28;19932;-89
2021/12/08 07:21:01;;;;;;;;;;;4.40;99.90;;;;;;5000606;28;20340;-90
2021/12/08 07:23:36;;;;;;;;;;;4.30;99.90;;;;;;5015322;28;20419;-88
2021/12/08 07:26:14;;;;;;;;;;;;;;;;;;;;;
2021/12/08 07:28:43;;;;;;;;;;;4.40;99.90;;;;;;5016354;28;20420;-89
2021/12/08 07:31:22;;;;;;;;;;;4.40;99.90;;;;;;4999278;28;19925;-89
2021/12/08 07:33:53;;;;;;;;;;;4.30;99.90;;;;;;5001084;28;19932;-90
2021/12/08 07:36:42;;;;;;;;;;;4.30;99.90;;;;;;4998980;28;19932;-89
2021/12/08 07:39:14;;;;;;;;;;;4.40;99.90;;;;;;4999827;28;19925;-89
2021/12/08 07:41:53;;;;;;;;;;;;;;;;;;;;;
2021/12/08 07:44:21;;;;;;;;;;;4.40;99.90;;;;;;5016802;28;19925;-88
2021/12/08 07:46:51;;;;;;;;;;;4.40;99.90;;;;;;4997673;28;19976;-90
2021/12/08 07:49:24;;;;;;;;;;;4.50;99.90;;;;;;5000121;28;19929;-88
2021/12/08 07:52:18;;;;;;;;;;;;;;;;;;;;;
2021/12/08 07:54:52;;;;;;;;;;;4.50;99.90;;;;;;5035523;28;19932;-88
2021/12/08 07:57:37;;;;;;;;;;;;;;;;;;;;;
2021/12/08 08:00:35;;;;;;;;;;;4.40;99.90;;;;;;5015613;28;19932;-90
2021/12/08 08:03:12;;;;;;;;;;;4.40;99.90;;;;;;5006377;28;19952;-89
2021/12/08 08:05:38;;;;;;;;;;;4.40;99.90;;;;;;5019625;28;19925;-88
2021/12/08 08:08:05;;;;;;;;;;;4.50;99.90;;;;;;5002326;28;20472;-88
2021/12/08 08:10:45;;;;;;;;;;;;;;;;;;;;;
2021/12/08 08:13:11;;;;;;;;;;;4.50;99.90;;;;;;5020821;28;20308;-89
2021/12/08 08:15:40;;;;;;;;;;;4.50;99.90;;;;;;5002097;28;20290;-88
2021/12/08 08:18:13;;;;;;;;;;;4.50;99.90;;;;;;5002898;28;19929;-88
2021/12/08 08:20:50;;;;;;;;;;;;;;;;;;;;;
2021/12/08 08:23:17;;;;;;;;;;;4.40;99.90;;;;;;5022427;28;19975;-90
2021/12/08 08:25:46;;;;;;;;;;;4.40;99.90;;;;;;5002779;28;20043;-91
2021/12/08 08:28:21;;;;;;;;;;;;;;;;;;;;;
2021/12/08 08:30:59;;;;;;;;;;;4.40;99.90;;;;;;5020136;28;19929;-92
2021/12/08 08:36:45;;;;;;;;;;;4.60;99.90;;;;;;5024066;28;19933;-96
2021/12/08 08:39:20;;;;;;;;;;;4.60;99.90;;;;;;5013882;28;19925;-92
2021/12/08 08:44:40;;;;;;;;;;;4.60;99.90;;;;;;5024818;28;19976;-87
2021/12/08 08:47:09;;;;;;;;;;;4.70;99.90;;;;;;5002103;28;20025;-87
2021/12/08 08:49:35;;;;;;;;;;;4.60;99.90;;;;;;5017867;28;19925;-87
2021/12/08 08:52:24;;;;;;;;;;;4.70;99.90;;;;;;5001551;28;19925;-87
2021/12/08 08:54:54;;;;;;;;;;;4.80;99.90;;;;;;5025632;28;19932;-87
2021/12/08 08:57:29;;;;;;;;;;;4.80;99.90;;;;;;5017987;28;19925;-87
2021/12/08 08:59:56;;;;;;;;;;;4.80;99.90;;;;;;5017990;28;20324;-87
2021/12/08 09:02:27;;;;;;;;;;;4.80;99.90;;;;;;5001305;28;19944;-87
2021/12/08 09:04:54;;;;;;;;;;;4.80;99.90;;;;;;5001708;28;19925;-87
2021/12/08 09:07:33;;;;;;;;;;;4.90;99.90;;;;;;5001985;28;19971;-87
2021/12/08 09:10:00;;;;;;;;;;;4.90;99.90;;;;;;5018887;28;19994;-87
2021/12/08 09:12:33;;;;;;;;;;;4.90;99.90;;;;;;5001146;28;19929;-87
2021/12/08 09:15:09;;;;;;;;;;;5.00;99.90;;;;;;5000402;28;20154;-87
2021/12/08 09:17:46;;;;;;;;;;;;;;;;;;;;;
2021/12/08 09:20:23;;;;;;;;;;;5.00;99.90;;;;;;5019143;28;19932;-87
2021/12/08 09:23:00;;;;;;;;;;;4.90;99.90;;;;;;5017666;28;19932;-87
2021/12/08 09:25:32;;;;;;;;;;;5.00;99.90;;;;;;5016858;28;19925;-87
2021/12/08 09:28:13;;;;;;;;;;;5.00;99.90;;;;;;5003651;28;20300;-87
2021/12/08 09:30:44;;;;;;;;;;;5.00;99.90;;;;;;5001922;28;19932;-87
2021/12/08 09:33:14;;;;;;;;;;;5.00;99.90;;;;;;5017480;28;20013;-87
2021/12/08 09:35:59;;;;;;;;;;;5.00;99.90;;;;;;5000873;28;19925;-87
2021/12/08 09:38:48;;;;;;;;;;;5.00;99.90;;;;;;5000487;28;20397;-88
2021/12/08 09:41:26;;;;;;;;;;;5.00;99.90;;;;;;5009094;28;20008;-88
2021/12/08 09:44:03;;;;;;;;;;;5.10;99.90;;;;;;5001183;28;19925;-88
2021/12/08 09:46:41;;;;;;;;;;;5.10;99.90;;;;;;5000727;28;19931;-86
2021/12/08 09:49:07;;;;;;;;;;;5.10;99.90;;;;;;5001366;28;19948;-87
2021/12/08 09:51:33;;;;;;;;;;;5.10;99.90;;;;;;5000143;28;19931;-88
2021/12/08 09:54:04;;;;;;;;;;;5.10;99.90;;;;;;5000352;28;19925;-87
2021/12/08 09:56:39;;;;;;;;;;;;;;;;;;;;;
2021/12/08 09:59:09;;;;;;;;;;;5.20;99.90;;;;;;5017934;28;20392;-86
2021/12/08 10:01:44;;;;;;;;;;;5.30;99.90;;;;;;5017719;28;19983;-93
2021/12/08 10:04:20;;;;;;;;;;;;;;;;;;;;;
2021/12/08 10:06:49;;;;;;;;;;;5.30;99.90;;;;;;5017664;28;19936;-87
2021/12/08 10:09:18;;;;;;;;;;;5.30;99.90;;;;;;5016765;28;19961;-87
2021/12/08 10:12:06;;;;;;;;;;;5.40;99.90;;;;;;5016515;28;20276;-88
2021/12/08 10:14:34;;;;;;;;;;;5.40;99.90;;;;;;5006565;28;19925;-88
2021/12/08 10:17:00;;;;;;;;;;;5.40;99.90;;;;;;5015505;28;19967;-88
2021/12/08 10:19:28;;;;;;;;;;;5.40;99.90;;;;;;5015658;28;19968;-88
2021/12/08 10:21:56;;;;;;;;;;;5.50;99.90;;;;;;5015439;28;20408;-87
2021/12/08 10:24:30;;;;;;;;;;;5.50;99.90;;;;;;4999918;28;19925;-88
2021/12/08 10:27:04;;;;;;;;;;;5.50;99.90;;;;;;5000817;28;19935;-87
2021/12/08 10:29:34;;;;;;;;;;;5.60;99.90;;;;;;5000144;28;19933;-86
2021/12/08 10:32:00;;;;;;;;;;;5.60;99.90;;;;;;4999589;28;20366;-87
2021/12/08 10:34:34;;;;;;;;;;;5.60;99.90;;;;;;5016033;28;19929;-88
2021/12/08 10:37:07;;;;;;;;;;;5.70;99.90;;;;;;5000205;28;19974;-87
2021/12/08 10:39:37;;;;;;;;;;;5.70;99.90;;;;;;5000000;28;19929;-86
2021/12/08 10:42:13;;;;;;;;;;;5.80;99.90;;;;;;4999498;28;20016;-88
2021/12/08 10:45:08;;;;;;;;;;;5.80;99.90;;;;;;5016186;28;20020;-87
2021/12/08 10:47:39;;;;;;;;;;;5.80;99.90;;;;;;5016342;28;19925;-87
2021/12/08 10:55:21;;;;;;;;;;;5.80;99.90;;;;;;5018390;28;20028;-88
2021/12/08 10:57:50;;;;;;;;;;;5.90;99.90;;;;;;5015517;28;19929;-87
2021/12/08 11:00:22;;;;;;;;;;;5.80;99.90;;;;;;5015738;28;19929;-87
2021/12/08 11:03:11;;;;;;;;;;;5.80;99.90;;;;;;4999281;28;19925;-88
2021/12/08 11:06:19;;;;;;;;;;;5.80;99.90;;;;;;5031007;28;19932;-93
2021/12/08 11:08:56;;;;;;;;;;;5.90;99.90;;;;;;5031440;28;19971;-88
2021/12/08 11:11:31;;;;;;;;;;;5.90;99.90;;;;;;5000064;28;19925;-87
2021/12/08 11:21:15;;;;;;;;;;;;;;;;;;;;;
2021/12/08 11:26:47;;;;;;;;;;;6.10;99.90;;;;;;4958059;28;19926;-88
2021/12/08 11:29:38;;;;;;;;;;;6.10;99.90;;;;;;5007560;28;19925;-87
2021/12/08 11:32:12;;;;;;;;;;;6.20;99.90;;;;;;4999672;28;20028;-87
2021/12/08 11:35:03;;;;;;;;;;;6.20;99.90;;;;;;5006330;28;19968;-96
2021/12/08 11:37:34;;;;;;;;;;;6.20;99.90;;;;;;5015000;28;19925;-88
2021/12/08 11:40:09;;;;;;;;;;;6.30;99.90;;;;;;5003631;28;19948;-86
2021/12/08 11:42:49;;;;;;;;;;;6.30;99.90;;;;;;5020525;28;19925;-87
2021/12/08 11:45:24;;;;;;;;;;;6.40;99.90;;;;;;5004532;28;19925;-87
2021/12/08 11:47:50;;;;;;;;;;;6.40;99.90;;;;;;5019862;28;19925;-87
2021/12/08 11:50:24;;;;;;;;;;;6.40;99.90;;;;;;5018897;28;20332;-87
2021/12/08 11:52:50;;;;;;;;;;;6.40;99.90;;;;;;5019011;28;19969;-88
2021/12/08 11:55:19;;;;;;;;;;;6.30;99.90;;;;;;5002488;28;19929;-87
2021/12/08 11:57:48;;;;;;;;;;;6.30;99.90;;;;;;5002245;28;19925;-87
2021/12/08 12:00:33;;;;;;;;;;;6.30;99.90;;;;;;5002597;28;20278;-88
2021/12/08 12:03:01;;;;;;;;;;;6.20;99.90;;;;;;5019212;28;19948;-87
2021/12/08 12:05:33;;;;;;;;;;;6.20;99.90;;;;;;5001853;28;20272;-88
2021/12/08 12:08:04;;;;;;;;;;;6.20;99.90;;;;;;5018655;28;20404;-87
2021/12/08 12:10:31;;;;;;;;;;;6.20;99.90;;;;;;5018738;28;20019;-87
2021/12/08 12:13:08;;;;;;;;;;;6.20;99.90;;;;;;5034890;28;19964;-88
2021/12/08 12:15:37;;;;;;;;;;;6.20;99.90;;;;;;5019538;28;19925;-88
2021/12/08 12:18:06;;;;;;;;;;;6.20;99.90;;;;;;5018819;28;19925;-88
2021/12/08 12:20:39;;;;;;;;;;;6.20;99.90;;;;;;5002368;28;19925;-88
2021/12/08 12:23:26;;;;;;;;;;;6.20;99.90;;;;;;5002449;28;20361;-87
2021/12/08 12:26:09;;;;;;;;;;;6.20;99.90;;;;;;5034676;28;20039;-88
2021/12/08 12:28:47;;;;;;;;;;;6.10;99.90;;;;;;5034167;28;20388;-89
2021/12/08 12:31:20;;;;;;;;;;;6.20;99.90;;;;;;5001981;28;19926;-88
2021/12/08 12:33:46;;;;;;;;;;;6.10;99.90;;;;;;5018348;28;20008;-88
2021/12/08 12:36:19;;;;;;;;;;;6.10;99.90;;;;;;5018306;28;20031;-87
2021/12/08 12:38:47;;;;;;;;;;;6.10;99.90;;;;;;5018023;28;20317;-87
2021/12/08 12:41:45;;;;;;;;;;;6.10;99.90;;;;;;5034830;28;20277;-88
2021/12/08 12:44:16;;;;;;;;;;;6.10;99.90;;;;;;4991497;28;19926;-88
2021/12/08 12:47:27;;;;;;;;;;;6.10;99.90;;;;;;5034823;28;20011;-88
2021/12/08 12:50:01;;;;;;;;;;;6.10;99.90;;;;;;4958607;28;19961;-88
2021/12/08 12:52:48;;;;;;;;;;;6.10;99.90;;;;;;5027382;28;19979;-88
2021/12/08 12:55:21;;;;;;;;;;;6.10;99.90;;;;;;5018240;28;19929;-87
2021/12/08 12:58:15;;;;;;;;;;;6.10;99.90;;;;;;5002168;28;19965;-87
2021/12/08 13:01:05;;;;;;;;;;;6.10;99.90;;;;;;5033101;28;19987;-87
2021/12/08 13:03:40;;;;;;;;;;;6.10;99.90;;;;;;5017727;28;20370;-87
2021/12/08 13:06:06;;;;;;;;;;;6.10;99.90;;;;;;5034522;28;19979;-87
2021/12/08 13:08:36;;;;;;;;;;;6.10;99.90;;;;;;5000785;28;20289;-87
2021/12/08 13:11:12;;;;;;;;;;;6.10;99.90;;;;;;5017374;28;19925;-88
2021/12/08 13:13:47;;;;;;;;;;;6.10;99.90;;;;;;5018376;28;20957;-88
2021/12/08 13:16:23;;;;;;;;;;;6.10;99.90;;;;;;5000974;28;19932;-87
2021/12/08 13:19:00;;;;;;;;;;;6.10;99.90;;;;;;5017241;28;19929;-88
2021/12/08 13:21:44;;;;;;;;;;;6.10;99.90;;;;;;5000895;28;19933;-90
2021/12/08 13:24:31;;;;;;;;;;;6.10;99.90;;;;;;5001245;28;20019;-87
2021/12/08 13:27:16;;;;;;;;;;;6.10;99.90;;;;;;5016893;28;20277;-87
2021/12/08 13:29:45;;;;;;;;;;;6.10;99.90;;;;;;5016952;28;20420;-87
2021/12/08 13:32:13;;;;;;;;;;;6.10;99.90;;;;;;5001396;28;19931;-87
2021/12/08 13:34:43;;;;;;;;;;;6.10;99.90;;;;;;5017325;28;20258;-88
2021/12/08 13:37:23;;;;;;;;;;;6.10;99.90;;;;;;5001578;28;19925;-88
2021/12/08 13:39:50;;;;;;;;;;;6.10;99.90;;;;;;5018068;28;20024;-87
2021/12/08 13:42:17;;;;;;;;;;;6.20;99.90;;;;;;5001017;28;19935;-88
2021/12/08 13:45:16;;;;;;;;;;;6.20;99.90;;;;;;5000310;28;20015;-89
2021/12/08 13:48:05;;;;;;;;;;;6.20;99.90;;;;;;4970379;28;19929;-89
2021/12/08 13:54:09;;;;;;;;;;;;;;;;;;;;;
2021/12/08 13:56:42;;;;;;;;;;;6.00;99.90;;;;;;5049644;28;19925;-89
2021/12/08 13:59:24;;;;;;;;;;;5.90;99.90;;;;;;5000559;28;19925;-89
2021/12/08 14:02:20;;;;;;;;;;;5.80;99.90;;;;;;5002661;28;20258;-89
2021/12/08 14:05:14;;;;;;;;;;;5.80;99.90;;;;;;5002199;28;19996;-89
2021/12/08 14:08:26;;;;;;;;;;;5.70;99.90;;;;;;5018581;28;20025;-89
2021/12/08 14:11:42;;;;;;;;;;;5.70;99.90;;;;;;5033345;28;19975;-89
2021/12/08 14:14:38;;;;;;;;;;;5.60;99.90;;;;;;5031914;28;19991;-89
2021/12/08 14:21:04;;;;;;;;;;;5.60;99.90;;;;;;5027138;28;20277;-90
2021/12/08 14:24:07;;;;;;;;;;;5.60;99.90;;;;;;5032504;28;19948;-89
2021/12/08 14:30:09;;;;;;;;;;;5.50;99.90;;;;;;5013496;28;20281;-89
2021/12/08 14:33:06;;;;;;;;;;;5.40;99.90;;;;;;5013019;28;19932;-89
2021/12/08 14:35:58;;;;;;;;;;;5.40;99.90;;;;;;5016058;28;19982;-89
2021/12/08 14:41:31;;;;;;;;;;;5.40;99.90;;;;;;5018077;28;20055;-90
2021/12/08 14:44:11;;;;;;;;;;;5.40;99.90;;;;;;4999619;28;20378;-89
2021/12/08 14:46:41;;;;;;;;;;;5.30;99.90;;;;;;5015477;28;19925;-89
2021/12/08 14:49:18;;;;;;;;;;;5.30;99.90;;;;;;5000331;28;19932;-89
2021/12/08 14:51:52;;;;;;;;;;;5.20;99.90;;;;;;5000398;28;19925;-88
2021/12/08 14:54:44;;;;;;;;;;;5.20;99.90;;;;;;5000643;28;19931;-88
2021/12/08 14:57:18;;;;;;;;;;;5.20;99.90;;;;;;5029935;28;19968;-89
2021/12/08 14:59:58;;;;;;;;;;;5.10;99.90;;;;;;5000213;28;20395;-88
2021/12/08 15:02:31;;;;;;;;;;;5.10;99.90;;;;;;5016087;28;20380;-88
2021/12/08 15:05:07;;;;;;;;;;;5.00;99.90;;;;;;4999246;28;20407;-89
2021/12/08 15:07:41;;;;;;;;;;;5.00;99.90;;;;;;5017453;28;19925;-96
2021/12/08 15:10:49;;;;;;;;;;;;;;;;;;;;;
2021/12/08 15:13:16;;;;;;;;;;;5.00;99.90;;;;;;5003708;28;19933;-87
2021/12/08 15:15:57;;;;;;;;;;;;;;;;;;;;;
2021/12/08 15:21:40;;;;;;;;;;;4.90;99.90;;;;;;5026196;28;19925;-87
2021/12/08 15:24:19;;;;;;;;;;;4.90;99.90;;;;;;5000898;28;19975;-87
2021/12/08 15:26:47;;;;;;;;;;;4.80;99.90;;;;;;4998854;28;19932;-88
2021/12/08 15:29:31;;;;;;;;;;;4.80;99.90;;;;;;5002160;28;19925;-87
2021/12/08 15:35:19;;;;;;;;;;;;;;;;;;;;;
2021/12/08 15:37:57;;;;;;;;;;;4.60;99.90;;;;;;5016397;28;19929;-87
2021/12/08 15:40:51;;;;;;;;;;;;;;;;;;;;;
2021/12/08 15:43:24;;;;;;;;;;;4.70;99.90;;;;;;5017202;28;19925;-87
2021/12/08 15:46:10;;;;;;;;;;;4.60;99.90;;;;;;4999135;28;19931;-88
2021/12/08 15:49:07;;;;;;;;;;;4.60;99.90;;;;;;5031782;28;19964;-87
2021/12/08 15:51:35;;;;;;;;;;;4.50;99.90;;;;;;5008893;28;19986;-88
2021/12/08 15:54:13;;;;;;;;;;;4.50;99.90;;;;;;4999410;28;19948;-87
2021/12/08 15:56:47;;;;;;;;;;;4.50;99.90;;;;;;5016483;28;20016;-87
2021/12/08 15:59:28;;;;;;;;;;;4.50;99.90;;;;;;4999125;28;19925;-88
2021/12/08 16:02:17;;;;;;;;;;;4.40;99.90;;;;;;4999930;28;19932;-88
2021/12/08 16:04:47;;;;;;;;;;;4.40;99.90;;;;;;4999040;28;19926;-88
2021/12/08 16:07:35;;;;;;;;;;;4.40;99.90;;;;;;5015317;28;20027;-87
2021/12/08 16:10:31;;;;;;;;;;;4.40;99.90;;;;;;5014650;28;20408;-87
2021/12/08 16:13:29;;;;;;;;;;;4.50;99.90;;;;;;5016976;28;19925;-87
2021/12/08 16:16:01;;;;;;;;;;;;;;;;;;;;;
2021/12/08 16:18:39;;;;;;;;;;;4.30;99.90;;;;;;5016286;28;19925;-87
2021/12/08 16:21:16;;;;;;;;;;;4.30;99.90;;;;;;5000386;28;19925;-87
2021/12/08 16:23:57;;;;;;;;;;;;;;;;;;;;;
2021/12/08 16:26:24;;;;;;;;;;;4.20;99.90;;;;;;5035996;28;19932;-87
2021/12/08 16:28:59;;;;;;;;;;;4.10;99.90;;;;;;5002491;28;20331;-87
2021/12/08 16:31:33;;;;;;;;;;;4.10;99.90;;;;;;5018844;28;19929;-87
2021/12/08 16:34:01;;;;;;;;;;;4.10;99.90;;;;;;5018361;28;19975;-87
2021/12/08 16:36:32;;;;;;;;;;;4.10;99.90;;;;;;5018813;28;19975;-87
2021/12/08 16:39:12;;;;;;;;;;;4.20;99.90;;;;;;5018999;28;19975;-87
2021/12/08 16:44:25;;;;;;;;;;;4.10;99.90;;;;;;5020972;28;20357;-87
2021/12/08 16:47:03;;;;;;;;;;;;;;;;;;;;;
2021/12/08 16:50:28;;;;;;;;;;;;;;;;;;;;;
2021/12/08 16:52:50;;;;;;;;;;;4.00;99.90;;;;;;5014984;28;20389;-87
2021/12/08 16:55:21;;;;;;;;;;;4.00;99.90;;;;;;5018836;28;19929;-88
2021/12/08 16:58:00;;;;;;;;;;;;;;;;;;;;;
2021/12/08 17:00:34;;;;;;;;;;;4.00;99.90;;;;;;5019498;28;19925;-87
2021/12/08 17:03:07;;;;;;;;;;;3.90;99.90;;;;;;5001694;28;19924;-88
2021/12/08 17:05:33;;;;;;;;;;;3.90;99.90;;;;;;5002737;28;19983;-87
2021/12/08 17:08:09;;;;;;;;;;;3.80;99.90;;;;;;5017080;28;19972;-87
2021/12/08 17:10:46;;;;;;;;;;;3.80;99.90;;;;;;5034327;28;19925;-87
2021/12/08 17:13:30;;;;;;;;;;;3.80;99.90;;;;;;5001596;28;19973;-87
2021/12/08 17:16:08;;;;;;;;;;;3.80;99.90;;;;;;5003304;28;20300;-87
2021/12/08 17:18:44;;;;;;;;;;;3.80;99.90;;;;;;5002562;28;19929;-87
2021/12/08 17:21:10;;;;;;;;;;;3.80;99.90;;;;;;5017097;28;20015;-87
2021/12/08 17:23:44;;;;;;;;;;;3.80;99.90;;;;;;5001221;28;19925;-87
2021/12/08 17:26:15;;;;;;;;;;;3.80;99.90;;;;;;5001038;28;19925;-88
2021/12/08 17:28:48;;;;;;;;;;;3.80;99.90;;;;;;5034654;28;19948;-87